Terminal Aerodrome Forecast
Issued by NWS Sioux Falls, SD

Home | Current Version | Previous Version | Graphics & Text | Print | Product List | Glossary Off
Versions: 1 2 3 4 5 6 7 8 9 10 11 12 13 14

000
FTUS43 KFSD 151831 AAA
TAFHON
TAF AMD
KHON 151831Z 1519/1618 33019G27KT 6SM HZ OVC020
     FM160000 34017G26KT 6SM HZ BKN025
     FM160300 34013G21KT P6SM SCT035
     FM160800 33009KT P6SM SCT060
     FM161500 32005KT P6SM FEW250=

USA.gov is the U.S. government's official web portal to all federal, state and local government web resources and services.